createdAt,value
2019-06-01T00:00:39.987Z,16.77
2019-06-01T00:05:44.583Z,16.23
2019-06-01T00:10:49.542Z,17.45
2019-06-01T00:15:53.934Z,18.27
2019-06-01T00:20:58.150Z,21.07
2019-06-01T00:26:02.370Z,20.00
2019-06-01T00:31:06.640Z,18.75
2019-06-01T00:36:10.886Z,19.15
2019-06-01T00:41:15.114Z,20.10
2019-06-01T00:46:19.342Z,20.32
2019-06-01T00:51:23.533Z,23.38
2019-06-01T00:56:27.761Z,19.67
2019-06-01T01:01:31.987Z,20.23
2019-06-01T01:06:36.201Z,21.77
2019-06-01T01:11:40.480Z,20.08
2019-06-01T01:16:45.498Z,20.85
2019-06-01T01:21:52.149Z,20.92
2019-06-01T01:26:56.793Z,21.90
2019-06-01T01:32:01.127Z,21.48
2019-06-01T01:37:05.362Z,23.02
2019-06-01T01:42:09.580Z,23.07
2019-06-01T01:47:14.407Z,23.10
2019-06-01T01:52:18.733Z,21.62
2019-06-01T01:57:22.965Z,23.75
2019-06-01T02:02:27.163Z,22.82
2019-06-01T02:07:31.366Z,24.63
2019-06-01T02:12:35.617Z,24.20
2019-06-01T02:17:39.826Z,23.70
2019-06-01T02:22:44.034Z,22.80
2019-06-01T02:27:48.244Z,23.00
2019-06-01T02:32:53.816Z,24.00
2019-06-01T02:37:58.645Z,21.68
2019-06-01T02:43:04.245Z,22.10
2019-06-01T02:48:09.106Z,23.00
2019-06-01T02:53:13.326Z,22.10
2019-06-01T02:58:17.548Z,22.13
2019-06-01T03:03:21.958Z,20.27
2019-06-01T03:08:26.848Z,20.75
2019-06-01T03:13:33.780Z,19.77
2019-06-01T03:18:39.842Z,20.12
2019-06-01T03:23:46.562Z,18.77
2019-06-01T03:28:53.649Z,19.62
2019-06-01T03:33:57.881Z,21.12
2019-06-01T03:39:03.971Z,19.17
2019-06-01T03:44:08.556Z,20.40
2019-06-01T03:49:12.715Z,20.05
2019-06-01T03:54:16.932Z,20.10
2019-06-01T03:59:21.234Z,20.48
2019-06-01T04:04:25.450Z,21.48
2019-06-01T04:09:29.652Z,20.50
2019-06-01T04:14:33.893Z,20.37
2019-06-01T04:19:38.098Z,21.07
2019-06-01T04:24:42.320Z,21.73
2019-06-01T04:29:46.511Z,21.07
2019-06-01T04:34:50.713Z,21.97
2019-06-01T04:39:54.922Z,21.82
2019-06-01T04:44:59.124Z,22.40
2019-06-01T04:50:04.540Z,21.93
2019-06-01T04:55:09.111Z,22.40
2019-06-01T05:00:25.985Z,22.15
2019-06-01T05:05:20.250Z,22.07
2019-06-01T05:10:24.457Z,22.52
2019-06-01T05:15:28.687Z,22.75
2019-06-01T05:20:32.900Z,22.70
2019-06-01T05:25:37.116Z,21.10
2019-06-01T05:30:41.324Z,20.48
2019-06-01T05:35:45.528Z,22.13
2019-06-01T05:40:49.754Z,20.85
2019-06-01T05:45:53.972Z,20.92
2019-06-01T05:50:58.182Z,18.70
2019-06-01T05:56:02.415Z,19.35
2019-06-01T06:01:06.618Z,18.95
2019-06-01T06:06:11.683Z,19.42
2019-06-01T06:11:16.973Z,19.05
2019-06-01T06:16:22.594Z,20.12
2019-06-01T06:21:26.761Z,19.52
2019-06-01T06:26:31.004Z,19.02
2019-06-01T06:31:35.221Z,18.98
2019-06-01T06:36:39.434Z,18.57
2019-06-01T06:41:43.649Z,18.65
2019-06-01T06:46:47.876Z,17.92
2019-06-01T06:51:52.070Z,18.40
2019-06-01T06:56:56.286Z,17.73
2019-06-01T07:02:00.528Z,17.12
2019-06-01T07:07:04.708Z,16.62
2019-06-01T07:12:08.944Z,15.25
2019-06-01T07:17:15.637Z,15.90
2019-06-01T07:22:19.749Z,14.70
2019-06-01T07:27:24.177Z,15.03
2019-06-01T07:32:28.722Z,13.48
2019-06-01T07:37:33.121Z,13.13
2019-06-01T07:42:37.331Z,12.68
2019-06-01T07:47:41.536Z,12.95
2019-06-01T07:52:45.732Z,12.00
2019-06-01T07:57:49.953Z,11.88
2019-06-01T08:02:54.146Z,10.35
2019-06-01T08:07:58.353Z,9.75
2019-06-01T08:13:02.612Z,8.80
2019-06-01T08:18:06.913Z,8.83
2019-06-01T08:23:11.115Z,9.95
2019-06-01T08:28:15.330Z,8.68
2019-06-01T08:33:19.506Z,8.18
2019-06-01T08:38:23.718Z,9.25
2019-06-01T08:43:27.947Z,8.00
2019-06-01T08:48:32.146Z,8.35
2019-06-01T08:53:36.406Z,7.50
2019-06-01T08:58:40.599Z,7.22
2019-06-01T09:03:46.800Z,7.35
2019-06-01T09:08:50.772Z,7.15
2019-06-01T09:13:55.006Z,6.67
2019-06-01T09:18:59.219Z,7.10
2019-06-01T09:24:03.423Z,6.62
2019-06-01T09:29:07.636Z,6.70
2019-06-01T09:34:11.854Z,6.50
2019-06-01T09:39:16.075Z,6.78
2019-06-01T09:44:20.325Z,6.22
2019-06-01T09:49:24.519Z,5.65
2019-06-01T09:54:29.412Z,6.12
2019-06-01T09:59:34.642Z,5.75
2019-06-01T10:04:39.605Z,7.15
2019-06-01T10:09:43.854Z,7.17
2019-06-01T10:14:48.068Z,6.37
2019-06-01T10:19:52.272Z,6.53
2019-06-01T10:24:56.492Z,6.33
2019-06-01T10:30:00.752Z,5.75
2019-06-01T10:35:05.845Z,6.95
2019-06-01T10:40:11.651Z,6.37
2019-06-01T10:45:16.852Z,5.85
2019-06-01T10:50:21.069Z,5.95
2019-06-01T10:55:25.259Z,5.90
2019-06-01T11:00:39.658Z,5.15
2019-06-01T11:05:36.750Z,4.97
2019-06-01T11:10:41.040Z,5.10
2019-06-01T11:15:45.178Z,5.55
2019-06-01T11:20:49.377Z,5.22
2019-06-01T11:25:53.582Z,5.00
2019-06-01T11:30:57.767Z,4.00
2019-06-01T11:36:01.970Z,4.35
2019-06-01T11:41:06.176Z,4.25
2019-06-01T11:46:10.381Z,4.30
2019-06-01T11:51:14.596Z,4.25
2019-06-01T11:56:18.826Z,4.00
2019-06-01T12:01:23.155Z,4.00
2019-06-01T12:06:27.337Z,4.10
2019-06-01T12:11:31.543Z,3.80
2019-06-01T12:16:36.387Z,4.15
2019-06-01T12:21:40.950Z,3.80
2019-06-01T12:26:45.546Z,3.02
2019-06-01T12:31:49.845Z,3.52
2019-06-01T12:36:54.283Z,3.55
2019-06-01T12:41:58.491Z,3.20
2019-06-01T12:47:02.696Z,3.60
2019-06-01T12:52:06.936Z,3.62
2019-06-01T12:57:11.278Z,3.60
2019-06-01T13:02:15.442Z,3.30
2019-06-01T13:07:19.653Z,3.10
2019-06-01T13:12:23.838Z,3.10
2019-06-01T13:17:28.036Z,2.77
2019-06-01T13:22:32.246Z,2.47
2019-06-01T13:27:38.588Z,2.85
2019-06-01T13:32:42.553Z,2.35
2019-06-01T13:37:46.868Z,2.50
2019-06-01T13:42:51.326Z,2.77
2019-06-01T13:47:55.616Z,2.50
2019-06-01T13:52:59.821Z,2.35
2019-06-01T13:58:04.019Z,2.40
2019-06-01T14:03:08.220Z,2.20
2019-06-01T14:08:27.845Z,2.70
2019-06-01T14:13:18.509Z,2.30
2019-06-01T14:18:22.715Z,2.47
2019-06-01T14:23:26.899Z,2.47
2019-06-01T14:28:31.092Z,2.40
2019-06-01T14:33:35.287Z,2.20
2019-06-01T14:38:46.823Z,2.12
2019-06-01T14:43:45.440Z,2.42
2019-06-01T14:48:51.583Z,2.20
2019-06-01T14:53:55.850Z,2.40
2019-06-01T14:59:02.034Z,1.72
2019-06-01T15:04:06.035Z,2.00
2019-06-01T15:09:18.303Z,2.45
2019-06-01T15:14:16.305Z,1.90
2019-06-01T15:19:20.497Z,2.00
2019-06-01T15:24:24.933Z,1.65
2019-06-01T15:29:29.145Z,2.25
2019-06-01T15:34:33.422Z,2.00
2019-06-01T15:39:37.617Z,1.80
2019-06-01T15:44:41.815Z,1.80
2019-06-01T15:49:46.006Z,1.80
2019-06-01T15:54:50.225Z,2.70
2019-06-01T15:59:54.601Z,2.05
2019-06-01T16:04:59.285Z,1.95
2019-06-01T16:10:06.475Z,2.00
2019-06-01T16:15:10.192Z,1.70
2019-06-01T16:20:14.600Z,1.87
2019-06-01T16:25:18.822Z,1.55
2019-06-01T16:30:23.025Z,1.82
2019-06-01T16:35:27.242Z,1.82
2019-06-01T16:40:31.441Z,1.90
2019-06-01T16:45:35.680Z,2.02
2019-06-01T16:50:39.871Z,2.15
2019-06-01T16:55:44.055Z,1.92
2019-06-01T17:00:48.273Z,1.70
2019-06-01T17:05:52.452Z,2.87
2019-06-01T17:10:56.742Z,2.50
2019-06-01T17:16:03.026Z,2.42
2019-06-01T17:21:07.628Z,2.60
2019-06-01T17:26:11.867Z,2.70
2019-06-01T17:31:16.074Z,2.40
2019-06-01T17:36:20.729Z,2.80
2019-06-01T17:41:24.905Z,3.95
2019-06-01T17:46:29.122Z,3.00
2019-06-01T17:51:33.344Z,2.20
2019-06-01T17:56:37.541Z,2.85
2019-06-01T18:01:42.738Z,3.08
2019-06-01T18:06:47.064Z,3.37
2019-06-01T18:11:51.245Z,2.58
2019-06-01T18:16:55.469Z,3.20
2019-06-01T18:21:59.676Z,3.70
2019-06-01T18:27:04.829Z,3.77
2019-06-01T18:32:09.518Z,4.62
2019-06-01T18:37:13.806Z,3.92
2019-06-01T18:42:18.963Z,25.00
2019-06-01T18:47:32.217Z,4.72
2019-06-01T18:52:29.052Z,5.10
2019-06-01T18:57:34.455Z,4.80
2019-06-01T19:02:38.666Z,5.08
2019-06-01T19:07:42.898Z,5.47
2019-06-01T19:12:47.133Z,5.47
2019-06-01T19:17:51.674Z,5.53
2019-06-01T19:22:55.897Z,5.37
2019-06-01T19:28:00.118Z,6.58
2019-06-01T19:33:04.796Z,5.50
2019-06-01T19:38:09.472Z,6.33
2019-06-01T19:43:13.692Z,6.72
2019-06-01T19:48:18.869Z,6.28
2019-06-01T19:53:23.309Z,6.58
2019-06-01T19:58:27.542Z,7.80
2019-06-01T20:03:31.852Z,7.45
2019-06-01T20:08:36.073Z,14.23
2019-06-01T20:13:40.301Z,23.02
2019-06-01T20:18:44.574Z,11.63
2019-06-01T20:23:48.918Z,10.95
2019-06-01T20:28:53.130Z,8.18
2019-06-01T20:33:58.063Z,10.70
2019-06-01T20:39:04.163Z,10.58
2019-06-01T20:44:08.308Z,12.90
2019-06-01T20:49:12.765Z,9.13
2019-06-01T20:54:16.975Z,13.72
2019-06-01T20:59:22.937Z,11.60
2019-06-01T21:04:27.266Z,11.38
2019-06-01T21:09:31.489Z,11.30
2019-06-01T21:14:36.957Z,8.13
2019-06-01T21:19:41.494Z,7.58
2019-06-01T21:24:45.680Z,9.83
2019-06-01T21:29:50.092Z,9.35
2019-06-01T21:34:54.296Z,9.85
2019-06-01T21:39:58.534Z,9.73
2019-06-01T21:45:02.750Z,9.33
2019-06-01T21:50:07.384Z,7.92
2019-06-01T21:55:11.563Z,8.55
2019-06-01T22:00:22.626Z,9.15
2019-06-01T22:05:27.336Z,9.43
2019-06-01T22:10:31.669Z,10.45
2019-06-01T22:15:35.885Z,10.08
2019-06-01T22:20:40.118Z,7.95
2019-06-01T22:25:44.318Z,9.33
2019-06-01T22:30:48.528Z,9.75
2019-06-01T22:35:52.721Z,9.38
2019-06-01T22:40:56.941Z,9.70
2019-06-01T22:46:01.158Z,9.83
2019-06-01T22:51:05.663Z,10.60
2019-06-01T22:56:09.883Z,10.28
2019-06-01T23:01:14.111Z,9.38
2019-06-01T23:06:18.327Z,10.32
2019-06-01T23:11:25.333Z,10.28
2019-06-01T23:16:29.810Z,10.13
2019-06-01T23:21:34.139Z,10.15
2019-06-01T23:26:38.327Z,10.60
2019-06-01T23:31:42.531Z,10.58
2019-06-01T23:36:46.754Z,11.15
2019-06-01T23:41:50.944Z,11.35
2019-06-01T23:46:55.150Z,11.78
2019-06-01T23:51:59.392Z,12.13
2019-06-01T23:57:03.652Z,11.68
